Time;durP1;ratioP1;P1;durP2;ratioP2;P2;SDS_P1;SDS_P2;PMS_P1;PMS_P2;Temp;Humidity;BMP_temperature;BMP_pressure;BME280_temperature;BME280_humidity;BME280_pressure;Samples;Min_cycle;Max_cycle;Signal;HPM_P1;HPM_P2
2024/04/12 00:01:49;;;;;;;6.17;2.47;;;11.20;99.90;;;;;;4551954;26;20285;-72
2024/04/12 00:03:52;;;;;;;4.27;2.10;;;11.20;99.90;;;;;;4545013;25;20247;-71
2024/04/12 00:05:57;;;;;;;3.93;2.20;;;11.10;99.90;;;;;;4558867;25;20253;-72
2024/04/12 00:08:01;;;;;;;4.20;2.10;;;11.10;99.90;;;;;;4541162;26;20280;-72
2024/04/12 00:10:06;;;;;;;4.17;1.93;;;11.10;99.90;;;;;;4551344;25;20675;-72
2024/04/12 00:12:07;;;;;;;4.53;2.33;;;11.10;99.90;;;;;;4566611;25;20363;-72
2024/04/12 00:14:10;;;;;;;4.87;2.20;;;11.00;99.90;;;;;;4515165;26;20263;-72
2024/04/12 00:16:12;;;;;;;5.20;2.17;;;11.00;99.90;;;;;;4547311;26;20343;-72
2024/04/12 00:18:15;;;;;;;5.10;2.33;;;11.00;99.90;;;;;;4550776;25;20283;-71
2024/04/12 00:20:18;;;;;;;4.33;2.20;;;10.90;99.90;;;;;;4555051;25;20261;-72
2024/04/12 00:22:24;;;;;;;6.30;2.70;;;10.90;99.90;;;;;;4555365;25;20241;-71
2024/04/12 00:24:29;;;;;;;4.33;2.27;;;10.90;99.90;;;;;;4556558;25;20293;-72
2024/04/12 00:26:33;;;;;;;3.17;2.27;;;10.80;99.90;;;;;;4554747;25;20236;-72
2024/04/12 00:28:36;;;;;;;7.80;2.60;;;10.80;99.90;;;;;;4551913;26;20241;-72
2024/04/12 00:30:41;;;;;;;5.20;2.40;;;10.80;99.90;;;;;;4557366;26;20240;-72
2024/04/12 00:32:44;;;;;;;4.20;2.33;;;10.80;99.90;;;;;;4543998;26;20721;-72
2024/04/12 00:34:51;;;;;;;2.80;2.00;;;10.80;99.90;;;;;;4549490;26;20509;-71
2024/04/12 00:36:54;;;;;;;4.43;2.50;;;10.70;99.90;;;;;;4551309;26;20233;-73
2024/04/12 00:38:58;;;;;;;5.37;2.63;;;10.70;99.90;;;;;;4549173;25;20253;-71
2024/04/12 00:41:11;;;;;;;5.93;2.23;;;10.60;99.90;;;;;;4552763;26;20356;-71
2024/04/12 00:43:18;;;;;;;5.80;2.30;;;10.60;99.90;;;;;;4545965;26;20662;-71
2024/04/12 00:45:39;;;;;;;3.97;2.10;;;10.60;99.90;;;;;;4555598;26;20241;-72
2024/04/12 00:47:42;;;;;;;5.77;2.33;;;10.50;99.90;;;;;;4551568;26;20240;-71
2024/04/12 00:49:49;;;;;;;5.97;1.80;;;10.50;99.90;;;;;;4554497;25;20780;-71
2024/04/12 00:51:52;;;;;;;6.17;2.20;;;10.40;99.90;;;;;;4555006;25;20291;-70
2024/04/12 00:53:56;;;;;;;5.90;2.40;;;10.40;99.90;;;;;;4546589;26;20237;-71
2024/04/12 00:56:04;;;;;;;3.90;2.00;;;10.40;99.90;;;;;;4514742;26;20727;-70
2024/04/12 00:58:06;;;;;;;2.70;1.73;;;10.40;99.90;;;;;;4550131;25;20270;-72
2024/04/12 01:00:12;;;;;;;4.00;2.10;;;10.30;99.90;;;;;;4548538;25;21020;-70
2024/04/12 01:02:15;;;;;;;3.30;1.70;;;10.40;99.90;;;;;;4549077;26;20613;-71
2024/04/12 01:04:20;;;;;;;3.77;1.83;;;10.30;99.90;;;;;;4548564;25;20300;-69
2024/04/12 01:06:24;;;;;;;3.67;2.00;;;10.30;99.90;;;;;;4551819;26;20240;-71
2024/04/12 01:08:29;;;;;;;3.60;1.97;;;10.30;99.90;;;;;;4529204;26;20242;-70
2024/04/12 01:10:30;;;;;;;6.50;2.20;;;10.30;99.90;;;;;;4563431;25;20238;-72
2024/04/12 01:12:37;;;;;;;4.03;2.27;;;10.20;99.90;;;;;;4555717;25;20278;-71
2024/04/12 01:14:38;;;;;;;4.20;1.83;;;10.20;99.90;;;;;;4562696;25;21092;-72
2024/04/12 01:16:42;;;;;;;4.23;2.00;;;10.30;99.90;;;;;;4557566;25;20292;-70
2024/04/12 01:18:44;;;;;;;4.30;1.97;;;10.20;99.90;;;;;;4547571;25;20240;-71
2024/04/12 01:20:47;;;;;;;5.63;1.90;;;10.20;99.90;;;;;;4552435;25;20252;-70
2024/04/12 01:22:53;;;;;;;5.27;2.40;;;10.20;99.90;;;;;;4556920;25;20275;-70
2024/04/12 01:24:57;;;;;;;4.70;2.13;;;10.20;99.90;;;;;;4552824;25;20570;-71
2024/04/12 01:27:01;;;;;;;5.33;1.97;;;10.10;99.90;;;;;;4549374;25;20349;-71
2024/04/12 01:29:02;;;;;;;3.17;1.77;;;10.10;99.90;;;;;;4546631;25;20295;-70
2024/04/12 01:31:06;;;;;;;3.57;1.70;;;10.10;99.90;;;;;;4553875;26;20233;-71
2024/04/12 01:33:08;;;;;;;5.37;2.03;;;10.00;99.90;;;;;;4547687;26;20233;-71
2024/04/12 01:35:12;;;;;;;5.40;2.13;;;10.00;99.90;;;;;;4544989;26;20240;-70
2024/04/12 01:37:15;;;;;;;6.33;2.30;;;10.00;99.90;;;;;;4545197;26;20264;-70
2024/04/12 01:39:18;;;;;;;4.73;1.97;;;10.00;99.90;;;;;;4552853;26;20233;-71
2024/04/12 01:41:27;;;;;;;3.23;2.00;;;10.00;99.90;;;;;;4551437;26;20245;-71
2024/04/12 01:43:35;;;;;;;5.77;2.03;;;9.90;99.90;;;;;;4551422;26;20645;-70
2024/04/12 01:45:39;;;;;;;3.73;2.10;;;9.90;99.90;;;;;;4519295;26;20250;-71
2024/04/12 01:47:42;;;;;;;4.67;1.90;;;9.90;99.90;;;;;;4547651;26;20242;-71
2024/04/12 01:49:46;;;;;;;4.83;1.77;;;9.90;99.90;;;;;;4548597;26;20962;-70
2024/04/12 01:51:50;;;;;;;2.83;1.80;;;9.90;99.90;;;;;;4550725;26;20340;-70
2024/04/12 01:53:54;;;;;;;4.90;2.00;;;9.80;99.90;;;;;;4550069;25;20254;-71
2024/04/12 01:55:58;;;;;;;6.00;1.90;;;9.80;99.90;;;;;;4561811;25;20277;-71
2024/04/12 01:58:04;;;;;;;5.63;2.30;;;9.80;99.90;;;;;;4548339;26;20344;-71
2024/04/12 02:00:06;;;;;;;3.97;2.07;;;9.80;99.90;;;;;;4548030;26;20311;-71
2024/04/12 02:02:10;;;;;;;5.83;2.50;;;9.70;99.90;;;;;;4519246;26;20693;-71
2024/04/12 02:04:15;;;;;;;6.93;2.20;;;9.70;99.90;;;;;;4557488;25;20244;-72
2024/04/12 02:06:19;;;;;;;6.17;2.10;;;9.80;99.90;;;;;;4559015;25;20240;-72
2024/04/12 02:08:24;;;;;;;4.13;2.10;;;9.70;99.90;;;;;;4554015;25;20235;-72
2024/04/12 02:10:27;;;;;;;8.93;2.50;;;9.70;99.90;;;;;;4555276;26;20245;-72
2024/04/12 02:12:28;;;;;;;5.40;2.17;;;9.70;99.90;;;;;;4552101;26;20267;-72
2024/04/12 02:14:34;;;;;;;8.00;2.83;;;9.70;99.90;;;;;;4555131;26;20360;-72
2024/04/12 02:16:38;;;;;;;8.03;3.07;;;9.70;99.90;;;;;;4521078;26;20986;-71
2024/04/12 02:18:44;;;;;;;7.37;3.10;;;9.70;99.90;;;;;;4550352;26;20240;-71
2024/04/12 02:20:46;;;;;;;7.47;2.47;;;9.70;99.90;;;;;;4549706;26;20343;-71
2024/04/12 02:22:49;;;;;;;7.77;2.80;;;9.70;99.90;;;;;;4552003;26;20291;-71
2024/04/12 02:24:51;;;;;;;6.30;2.60;;;9.60;99.90;;;;;;4550205;26;20336;-72
2024/04/12 02:26:54;;;;;;;6.83;2.47;;;9.60;99.90;;;;;;4551178;25;20256;-72
2024/04/12 02:29:01;;;;;;;5.10;2.47;;;9.60;99.90;;;;;;4552746;26;20236;-72
2024/04/12 02:31:09;;;;;;;4.80;2.33;;;9.60;99.90;;;;;;4552925;26;20712;-71
2024/04/12 02:33:11;;;;;;;4.13;2.40;;;9.50;99.90;;;;;;4551988;26;20778;-71
2024/04/12 02:35:17;;;;;;;8.47;2.60;;;9.50;99.90;;;;;;4549283;26;20798;-71
2024/04/12 02:37:18;;;;;;;3.73;2.00;;;9.50;99.90;;;;;;4548906;26;20728;-71
2024/04/12 02:39:23;;;;;;;4.87;2.27;;;9.40;99.90;;;;;;4544001;26;20241;-72
2024/04/12 02:41:30;;;;;;;5.17;2.17;;;9.40;99.90;;;;;;4552344;26;20311;-71
2024/04/12 02:43:35;;;;;;;6.27;2.53;;;9.40;99.90;;;;;;4548313;26;20297;-73
2024/04/12 02:45:38;;;;;;;3.57;2.20;;;9.40;99.90;;;;;;4548879;26;20241;-72
2024/04/12 02:47:45;;;;;;;6.30;2.40;;;9.40;99.90;;;;;;4548879;26;20249;-72
2024/04/12 02:49:46;;;;;;;4.10;2.17;;;9.40;99.90;;;;;;4549004;26;20263;-72
2024/04/12 02:51:53;;;;;;;7.23;2.50;;;9.30;99.90;;;;;;4549259;25;20260;-71
2024/04/12 02:53:57;;;;;;;4.03;2.20;;;9.30;99.90;;;;;;4520209;26;20240;-72
2024/04/12 02:56:02;;;;;;;7.17;2.53;;;9.30;99.90;;;;;;4551402;26;20253;-72
2024/04/12 02:58:04;;;;;;;5.73;2.50;;;9.30;99.90;;;;;;4553090;25;20349;-71
2024/04/12 03:00:21;;;;;;;2.80;1.97;;;9.30;99.90;;;;;;4554289;25;20681;-72
2024/04/12 03:02:22;;;;;;;5.97;2.40;;;9.30;99.90;;;;;;4553190;25;20297;-72
2024/04/12 03:04:28;;;;;;;4.87;2.20;;;9.30;99.90;;;;;;4555723;25;20647;-72
2024/04/12 03:06:31;;;;;;;5.23;2.40;;;9.30;99.90;;;;;;4549056;25;20246;-71
2024/04/12 03:08:36;;;;;;;4.47;2.20;;;9.30;99.90;;;;;;4517636;26;20366;-71
2024/04/12 03:10:43;;;;;;;7.00;2.47;;;9.30;99.90;;;;;;4551927;26;20237;-71
2024/04/12 03:12:51;;;;;;;3.57;1.83;;;9.30;99.90;;;;;;4549563;26;20301;-72
2024/04/12 03:14:54;;;;;;;6.87;2.13;;;9.20;99.90;;;;;;4545284;25;20244;-71
2024/04/12 03:16:57;;;;;;;5.63;2.40;;;9.20;99.90;;;;;;4549953;26;20241;-71
2024/04/12 03:18:59;;;;;;;5.83;2.23;;;9.20;99.90;;;;;;4550055;26;20338;-71
2024/04/12 03:21:05;;;;;;;3.47;2.13;;;9.20;99.90;;;;;;4543474;26;20268;-72
2024/04/12 03:23:06;;;;;;;5.50;2.17;;;9.10;99.90;;;;;;4549680;26;20262;-71
2024/04/12 03:25:10;;;;;;;8.77;2.00;;;9.20;99.90;;;;;;4544313;26;20252;-71
2024/04/12 03:27:11;;;;;;;3.47;2.00;;;9.10;99.90;;;;;;4545997;26;20356;-71
2024/04/12 03:29:16;;;;;;;4.10;2.37;;;9.10;99.90;;;;;;4549629;26;20743;-71
2024/04/12 03:31:17;;;;;;;5.17;2.30;;;9.10;99.90;;;;;;4551845;26;20711;-71
2024/04/12 03:33:21;;;;;;;7.43;2.30;;;9.10;99.90;;;;;;4550231;25;20275;-72
2024/04/12 03:35:25;;;;;;;3.70;2.50;;;9.10;99.90;;;;;;4553426;25;20715;-72
2024/04/12 03:37:39;;;;;;;4.80;2.30;;;9.00;99.90;;;;;;4545450;26;20322;-71
2024/04/12 03:39:40;;;;;;;3.90;2.00;;;9.10;99.90;;;;;;4548438;26;20282;-73
2024/04/12 03:41:44;;;;;;;5.90;2.17;;;9.10;99.90;;;;;;4520763;26;20288;-71
2024/04/12 03:43:45;;;;;;;7.13;2.53;;;9.00;99.90;;;;;;4550766;26;20592;-71
2024/04/12 03:45:57;;;;;;;4.50;2.10;;;9.10;99.90;;;;;;4516530;26;20273;-72
2024/04/12 03:48:00;;;;;;;4.93;2.00;;;9.00;99.90;;;;;;4556964;26;20240;-72
2024/04/12 03:50:12;;;;;;;6.83;2.27;;;9.10;99.90;;;;;;4553679;26;20236;-72
2024/04/12 03:52:14;;;;;;;5.90;2.13;;;9.00;99.90;;;;;;4543854;26;20247;-72
2024/04/12 03:54:21;;;;;;;9.73;4.17;;;9.10;99.90;;;;;;4559571;26;20256;-72
2024/04/12 03:56:28;;;;;;;7.50;3.57;;;9.10;99.90;;;;;;4558325;25;20631;-72
2024/04/12 03:58:31;;;;;;;7.80;2.87;;;9.10;99.90;;;;;;4554742;25;20243;-72
2024/04/12 04:00:38;;;;;;;8.67;3.13;;;9.20;99.90;;;;;;4556592;26;20263;-73
2024/04/12 04:02:39;;;;;;;5.30;2.70;;;9.20;99.90;;;;;;4547731;26;20256;-71
2024/04/12 04:04:47;;;;;;;6.60;2.60;;;9.10;99.90;;;;;;4554913;25;20729;-71
2024/04/12 04:06:50;;;;;;;8.77;2.73;;;9.10;99.90;;;;;;4547700;26;20303;-71
2024/04/12 04:08:53;;;;;;;6.60;2.90;;;9.10;99.90;;;;;;4550295;25;20612;-70
2024/04/12 04:11:02;;;;;;;8.50;2.87;;;9.10;99.90;;;;;;4552105;25;20346;-71
2024/04/12 04:13:07;;;;;;;5.67;2.97;;;9.10;99.90;;;;;;4552365;25;20248;-71
2024/04/12 04:15:09;;;;;;;6.40;3.33;;;9.10;99.90;;;;;;4558989;25;20348;-71
2024/04/12 04:17:13;;;;;;;11.23;4.60;;;9.10;99.90;;;;;;4549524;26;20245;-72
2024/04/12 04:19:16;;;;;;;6.63;3.27;;;9.10;99.90;;;;;;4547751;26;20233;-71
2024/04/12 04:21:24;;;;;;;6.10;2.93;;;9.10;99.90;;;;;;4542725;26;20243;-71
2024/04/12 04:23:25;;;;;;;8.83;3.27;;;9.10;99.90;;;;;;4546931;26;20822;-73
2024/04/12 04:25:31;;;;;;;7.10;2.90;;;9.10;99.90;;;;;;4515773;26;20246;-73
2024/04/12 04:27:35;;;;;;;5.93;2.90;;;9.10;99.90;;;;;;4551952;26;20592;-72
2024/04/12 04:29:43;;;;;;;6.37;2.83;;;9.10;99.90;;;;;;4553205;25;20335;-72
2024/04/12 04:31:46;;;;;;;4.13;2.60;;;9.10;99.90;;;;;;4551636;25;20243;-72
2024/04/12 04:33:50;;;;;;;5.10;2.57;;;9.10;99.90;;;;;;4547983;25;20240;-74
2024/04/12 04:35:51;;;;;;;9.70;3.20;;;9.10;99.90;;;;;;4551274;26;20331;-71
2024/04/12 04:37:55;;;;;;;8.37;3.20;;;9.10;99.90;;;;;;4515089;26;20316;-71
2024/04/12 04:39:56;;;;;;;10.83;3.23;;;9.10;99.90;;;;;;4552170;26;20275;-72
2024/04/12 04:42:00;;;;;;;5.70;2.90;;;9.20;99.90;;;;;;4550783;26;20760;-71
2024/04/12 04:44:06;;;;;;;4.77;2.30;;;9.10;99.90;;;;;;4547956;25;20240;-70
2024/04/12 04:46:26;;;;;;;6.20;2.50;;;9.10;99.90;;;;;;4548021;25;20294;-72
2024/04/12 04:48:27;;;;;;;6.90;3.13;;;9.10;99.90;;;;;;4549510;25;20293;-73
2024/04/12 04:50:31;;;;;;;5.93;2.70;;;9.10;99.90;;;;;;4514702;26;20245;-72
2024/04/12 04:52:35;;;;;;;5.90;2.77;;;9.10;99.90;;;;;;4575887;25;20240;-72
2024/04/12 04:54:39;;;;;;;7.73;2.97;;;9.10;99.90;;;;;;4550137;25;20323;-72
2024/04/12 04:56:41;;;;;;;5.40;2.83;;;9.10;99.90;;;;;;4543172;25;20243;-72
2024/04/12 04:58:44;;;;;;;5.27;2.83;;;9.10;99.90;;;;;;4546113;25;20684;-72
2024/04/12 05:00:52;;;;;;;4.93;2.80;;;9.10;99.90;;;;;;4544724;26;20348;-72
2024/04/12 05:02:55;;;;;;;4.97;2.60;;;9.10;99.90;;;;;;4547848;25;20267;-72
2024/04/12 05:04:56;;;;;;;5.83;2.93;;;9.20;99.90;;;;;;4550578;25;20237;-72
2024/04/12 05:07:03;;;;;;;5.87;2.87;;;9.20;99.90;;;;;;4548562;26;20319;-73
2024/04/12 05:09:08;;;;;;;6.50;2.73;;;9.20;99.90;;;;;;4551687;25;20244;-70
2024/04/12 05:11:15;;;;;;;5.57;2.90;;;9.30;99.90;;;;;;4553895;25;20382;-71
2024/04/12 05:13:17;;;;;;;5.23;2.73;;;9.30;99.90;;;;;;4552931;25;20351;-73
2024/04/12 05:17:40;;;;;;;7.43;3.67;;;9.30;99.90;;;;;;4524028;26;20240;-72
2024/04/12 05:19:43;;;;;;;6.90;3.33;;;9.40;99.90;;;;;;4547582;26;20290;-72
2024/04/12 05:21:47;;;;;;;6.57;3.03;;;9.40;99.90;;;;;;4545897;25;20571;-73
2024/04/12 05:23:51;;;;;;;7.50;3.37;;;9.40;99.90;;;;;;4549114;25;20837;-72
2024/04/12 05:25:55;;;;;;;5.00;2.70;;;9.40;99.90;;;;;;4545583;25;20999;-72
2024/04/12 05:27:55;;;;;;;5.83;3.03;;;9.50;99.90;;;;;;4543085;25;20347;-71
2024/04/12 05:29:59;;;;;;;8.50;3.60;;;9.50;99.90;;;;;;4538343;26;20242;-71
2024/04/12 05:32:00;;;;;;;6.63;2.67;;;9.60;99.90;;;;;;4544705;25;20329;-71
2024/04/12 05:34:07;;;;;;;11.10;3.30;;;9.60;99.90;;;;;;4547749;25;20929;-71
2024/04/12 05:36:09;;;;;;;8.13;2.90;;;9.60;99.90;;;;;;4544530;26;20877;-73
2024/04/12 05:38:13;;;;;;;7.10;3.77;;;9.60;99.90;;;;;;4542439;26;20241;-71
2024/04/12 05:40:21;;;;;;;6.37;3.10;;;9.70;99.90;;;;;;4518365;26;20286;-70
2024/04/12 05:42:25;;;;;;;8.70;4.43;;;9.70;99.90;;;;;;4545868;26;20285;-70
2024/04/12 05:44:26;;;;;;;8.93;4.53;;;9.80;99.90;;;;;;4543458;26;20399;-70
2024/04/12 05:46:30;;;;;;;13.30;4.10;;;9.80;99.90;;;;;;4552394;26;20665;-70
2024/04/12 05:48:31;;;;;;;12.73;3.90;;;9.80;99.90;;;;;;4547773;26;20248;-70
2024/04/12 05:50:39;;;;;;;6.77;3.40;;;9.90;99.90;;;;;;4550284;25;20311;-72
2024/04/12 05:52:40;;;;;;;9.90;3.63;;;9.90;99.90;;;;;;4515409;26;20252;-69
2024/04/12 05:54:45;;;;;;;7.57;3.40;;;10.00;99.90;;;;;;4551266;26;20274;-71
2024/04/12 05:56:46;;;;;;;7.10;3.67;;;10.00;99.90;;;;;;4550375;25;20301;-72
2024/04/12 05:58:50;;;;;;;8.73;4.00;;;10.10;99.90;;;;;;4561288;25;20248;-70
2024/04/12 06:00:51;;;;;;;8.00;3.53;;;10.20;99.90;;;;;;4556726;26;20248;-70
2024/04/12 06:02:52;;;;;;;8.33;3.60;;;10.20;99.90;;;;;;4550281;26;20404;-70
2024/04/12 06:05:00;;;;;;;6.47;3.17;;;10.20;99.90;;;;;;4556402;25;20271;-70
2024/04/12 06:07:11;;;;;;;9.07;3.20;;;10.30;99.90;;;;;;4518313;26;20370;-71
2024/04/12 06:09:19;;;;;;;6.43;3.03;;;10.30;99.90;;;;;;4553676;25;20302;-71
2024/04/12 06:11:21;;;;;;;10.67;3.10;;;10.30;99.90;;;;;;4557259;25;20244;-71
2024/04/12 06:13:26;;;;;;;5.20;3.13;;;10.30;99.90;;;;;;4553719;25;20236;-70
2024/04/12 06:15:36;;;;;;;6.67;3.33;;;10.20;99.90;;;;;;4550885;25;20295;-71
2024/04/12 06:17:40;;;;;;;6.80;2.87;;;10.20;99.90;;;;;;4554043;26;20233;-71
2024/04/12 06:19:41;;;;;;;6.53;3.30;;;10.20;99.90;;;;;;4553970;26;20701;-71
2024/04/12 06:21:46;;;;;;;8.93;4.00;;;10.20;99.90;;;;;;4552268;26;20259;-72
2024/04/12 06:23:54;;;;;;;4.90;2.70;;;10.20;99.90;;;;;;4551694;26;20584;-73
2024/04/12 06:25:58;;;;;;;7.27;3.60;;;10.20;99.90;;;;;;4549814;26;21053;-72
2024/04/12 06:28:01;;;;;;;9.33;3.63;;;10.20;99.90;;;;;;4551800;26;21045;-72
2024/04/12 06:30:06;;;;;;;7.87;3.50;;;10.20;99.90;;;;;;4550157;26;20276;-72
2024/04/12 06:32:08;;;;;;;7.67;3.73;;;10.20;99.90;;;;;;4551407;26;20493;-70
2024/04/12 06:34:17;;;;;;;6.93;3.47;;;10.20;99.90;;;;;;4557112;25;20357;-69
2024/04/12 06:36:17;;;;;;;6.93;2.80;;;10.20;99.90;;;;;;4551317;25;20251;-72
2024/04/12 06:38:21;;;;;;;7.20;2.93;;;10.20;99.90;;;;;;4550299;26;20277;-72
2024/04/12 06:40:28;;;;;;;7.40;3.30;;;10.20;99.90;;;;;;4553072;26;20264;-71
2024/04/12 06:42:29;;;;;;;8.73;3.47;;;10.30;99.90;;;;;;4549055;26;20610;-71
2024/04/12 06:44:32;;;;;;;7.20;2.83;;;10.30;99.90;;;;;;4553295;25;20249;-72
2024/04/12 06:46:35;;;;;;;8.87;3.47;;;10.30;99.90;;;;;;4558991;25;20291;-71
2024/04/12 06:48:40;;;;;;;7.40;3.03;;;10.40;99.90;;;;;;4523588;26;20258;-72
2024/04/12 06:50:42;;;;;;;10.73;3.60;;;10.40;99.90;;;;;;4554604;25;20247;-72
2024/04/12 06:52:50;;;;;;;4.73;2.83;;;10.50;99.90;;;;;;4555855;25;20245;-72
2024/04/12 06:54:52;;;;;;;7.37;3.00;;;10.50;99.90;;;;;;4550116;25;20243;-72
2024/04/12 06:57:02;;;;;;;8.97;3.20;;;10.60;99.90;;;;;;4550657;25;20252;-72
2024/04/12 06:59:07;;;;;;;8.23;3.60;;;10.70;99.90;;;;;;4550908;25;20292;-71
2024/04/12 07:01:12;;;;;;;12.70;5.20;;;10.70;99.90;;;;;;4547016;25;20724;-71
2024/04/12 07:03:16;;;;;;;10.70;4.37;;;10.80;99.90;;;;;;4548680;26;20247;-71
2024/04/12 07:05:21;;;;;;;7.20;3.97;;;10.90;99.90;;;;;;4526289;26;20250;-72
2024/04/12 07:07:28;;;;;;;10.07;3.93;;;10.90;99.90;;;;;;4552852;26;20280;-70
2024/04/12 07:09:31;;;;;;;7.87;3.60;;;10.90;99.90;;;;;;4553908;25;20240;-70
2024/04/12 07:11:32;;;;;;;5.43;3.10;;;11.00;99.90;;;;;;4553768;25;20579;-71
2024/04/12 07:13:39;;;;;;;6.90;3.70;;;11.00;99.90;;;;;;4555501;25;20304;-70
2024/04/12 07:15:40;;;;;;;9.43;3.53;;;11.10;99.90;;;;;;4552567;25;20244;-73
2024/04/12 07:17:47;;;;;;;7.00;3.00;;;11.10;99.90;;;;;;4558519;25;20276;-71
2024/04/12 07:19:50;;;;;;;8.73;3.10;;;11.20;99.90;;;;;;4552102;26;20353;-72
2024/04/12 07:21:54;;;;;;;5.27;3.07;;;11.20;99.90;;;;;;4524018;26;20239;-71
2024/04/12 07:23:55;;;;;;;7.60;3.00;;;11.30;99.90;;;;;;4552896;26;20283;-71
2024/04/12 07:25:58;;;;;;;6.57;3.20;;;11.50;99.90;;;;;;4550897;25;20297;-74
2024/04/12 07:28:00;;;;;;;6.67;2.63;;;11.50;99.90;;;;;;4522846;26;20281;-70
2024/04/12 07:30:08;;;;;;;10.17;3.30;;;11.60;99.90;;;;;;4551999;26;20250;-70
2024/04/12 07:32:10;;;;;;;9.73;2.40;;;11.70;99.90;;;;;;4554460;26;20248;-71
2024/04/12 07:34:16;;;;;;;10.30;3.33;;;11.80;99.90;;;;;;4520417;26;20297;-71
2024/04/12 07:36:17;;;;;;;6.07;2.80;;;11.90;99.90;;;;;;4518706;26;20606;-72
2024/04/12 07:38:22;;;;;;;10.93;3.00;;;12.00;99.90;;;;;;4551169;26;20281;-72
2024/04/12 07:40:24;;;;;;;8.43;3.07;;;12.00;99.90;;;;;;4554443;25;20252;-70
2024/04/12 07:42:26;;;;;;;11.73;3.00;;;12.10;99.90;;;;;;4559979;25;20303;-70
2024/04/12 07:44:35;;;;;;;7.33;3.00;;;12.10;99.90;;;;;;4550467;25;20248;-70
2024/04/12 07:46:48;;;;;;;5.27;2.77;;;12.20;99.90;;;;;;4555199;25;20864;-71
2024/04/12 07:48:52;;;;;;;9.67;3.07;;;12.30;99.90;;;;;;4563125;25;20233;-71
2024/04/12 07:50:54;;;;;;;8.03;3.00;;;12.40;99.90;;;;;;4552974;25;20240;-72
2024/04/12 07:53:10;;;;;;;5.63;3.00;;;12.40;99.90;;;;;;4564588;25;20344;-73
2024/04/12 07:55:19;;;;;;;5.33;2.37;;;12.50;99.90;;;;;;4556319;25;20827;-72
2024/04/12 07:57:25;;;;;;;15.10;7.13;;;12.60;99.90;;;;;;4554205;25;20716;-71
2024/04/12 07:59:26;;;;;;;11.53;4.47;;;12.60;99.90;;;;;;4520679;26;20244;-70
2024/04/12 08:01:30;;;;;;;9.07;3.90;;;12.80;99.90;;;;;;4552990;26;20240;-73
2024/04/12 08:03:36;;;;;;;7.97;3.00;;;12.80;99.90;;;;;;4559812;25;20310;-71
2024/04/12 08:05:59;;;;;;;7.97;3.47;;;12.90;99.90;;;;;;4552216;26;21011;-72
2024/04/12 08:08:14;;;;;;;7.97;2.90;;;13.00;99.90;;;;;;4553742;25;20242;-73
2024/04/12 08:10:29;;;;;;;8.50;3.23;;;13.10;99.90;;;;;;4558018;26;20241;-71
2024/04/12 08:12:33;;;;;;;7.33;2.90;;;13.20;99.90;;;;;;4557094;26;20796;-76
2024/04/12 08:14:38;;;;;;;8.03;2.90;;;13.30;99.90;;;;;;4562048;26;20252;-70
2024/04/12 08:16:40;;;;;;;6.13;2.80;;;13.30;99.90;;;;;;4554689;25;20986;-71
2024/04/12 08:19:12;;;;;;;4.43;2.40;;;13.40;99.90;;;;;;4554719;26;20252;-71
2024/04/12 08:21:37;;;;;;;8.27;2.70;;;13.50;99.90;;;;;;4551220;25;20604;-72
2024/04/12 08:24:08;;;;;;;9.07;3.10;;;13.60;99.90;;;;;;4549335;26;20284;-71
2024/04/12 08:26:33;;;;;;;4.83;2.40;;;13.70;99.90;;;;;;4547632;26;20286;-71
2024/04/12 08:29:00;;;;;;;9.67;2.60;;;13.80;99.90;;;;;;4550276;26;20238;-71
2024/04/12 08:31:23;;;;;;;6.20;2.60;;;13.90;99.90;;;;;;4558090;26;20279;-73
2024/04/12 08:33:47;;;;;;;7.83;2.90;;;14.00;99.90;;;;;;4554123;26;20731;-72
2024/04/12 08:36:14;;;;;;;7.50;2.60;;;14.10;99.90;;;;;;4551018;26;20793;-71
2024/04/12 08:38:53;;;;;;;8.53;3.47;;;14.20;99.90;;;;;;4550390;26;20240;-71
2024/04/12 08:41:15;;;;;;;10.10;4.10;;;14.20;99.90;;;;;;4542195;26;20318;-69
2024/04/12 08:43:46;;;;;;;8.30;3.23;;;14.50;99.90;;;;;;4548073;25;20236;-71
2024/04/12 08:46:21;;;;;;;5.13;3.03;;;14.70;99.90;;;;;;4543879;25;20267;-70
2024/04/12 08:48:47;;;;;;;8.13;3.33;;;14.70;99.90;;;;;;4550671;25;20313;-69
2024/04/12 08:51:13;;;;;;;7.33;3.10;;;14.90;99.90;;;;;;4541477;25;20283;-68
2024/04/12 08:53:44;;;;;;;7.53;3.00;;;15.00;99.90;;;;;;4548126;25;20247;-68
2024/04/12 08:56:56;;;;;;;10.20;3.33;;;15.10;99.90;;;;;;4544310;25;20234;-69
2024/04/12 09:00:15;;;;;;;8.40;3.03;;;15.20;99.90;;;;;;4556669;25;20236;-70
2024/04/12 09:03:32;;;;;;;6.93;3.20;;;15.30;99.90;;;;;;4560913;25;20246;-69
2024/04/12 09:06:48;;;;;;;9.33;3.80;;;15.40;99.90;;;;;;4547903;25;20284;-69
2024/04/12 09:09:59;;;;;;;6.80;3.17;;;15.50;99.90;;;;;;4550241;25;20781;-72
2024/04/12 09:13:14;;;;;;;8.40;3.57;;;15.60;99.90;;;;;;4549782;25;20290;-72
2024/04/12 09:16:29;;;;;;;19.63;10.57;;;15.70;99.90;;;;;;4541991;26;20319;-72
2024/04/12 09:19:45;;;;;;;14.13;4.43;;;15.80;99.90;;;;;;4548301;26;20254;-73
2024/04/12 09:23:13;;;;;;;8.90;3.80;;;15.90;99.90;;;;;;4547309;25;20355;-70
2024/04/12 09:26:24;;;;;;;7.23;3.27;;;15.90;99.90;;;;;;4555270;25;20275;-72
2024/04/12 09:29:43;;;;;;;9.27;3.73;;;16.00;99.90;;;;;;4563454;25;20244;-70
2024/04/12 09:33:00;;;;;;;8.60;2.50;;;16.20;99.90;;;;;;4550087;25;20250;-71
2024/04/12 09:36:28;;;;;;;8.03;2.50;;;16.30;99.90;;;;;;4547705;25;20358;-69
2024/04/12 09:39:57;;;;;;;4.47;1.80;;;16.40;99.90;;;;;;4554867;25;20235;-69
2024/04/12 09:43:31;;;;;;;7.87;2.63;;;16.50;99.90;;;;;;4549957;26;20264;-73
2024/04/12 09:46:46;;;;;;;8.17;2.83;;;16.50;99.90;;;;;;4558417;25;20294;-72
